Terminal Aerodrome Forecast
Issued by NWS

Home | Current Version | Previous Version | Text Only | Print | Product List | Glossary On
Versions: 1 2 3 4 5 6 7 8 9 10 11 12 13 14 15 16 17
000
FTUS42 KMHX 211726
TAFISO
TAF
KISO 211726Z 2118/2218 VRB05KT P6SM SCT040
     FM220600 00000KT 4SM BR SCT015
     FM220800 00000KT 1SM BR OVC005
     FM221400 21006KT P6SM SCT040
      AMD NOT SKED=

USA.gov is the U.S. government's official web portal to all federal, state and local government web resources and services.